createdAt,value
2023-02-15T00:00:11.548Z,19.70
2023-02-15T00:02:38.534Z,21.88
2023-02-15T00:05:05.793Z,24.15
2023-02-15T00:07:32.525Z,20.80
2023-02-15T00:09:59.741Z,19.45
2023-02-15T00:12:26.475Z,22.10
2023-02-15T00:14:53.268Z,21.20
2023-02-15T00:17:19.980Z,21.75
2023-02-15T00:19:46.681Z,21.95
2023-02-15T00:22:13.891Z,22.73
2023-02-15T00:24:41.494Z,20.25
2023-02-15T00:27:10.005Z,19.75
2023-02-15T00:29:37.221Z,20.70
2023-02-15T00:32:04.489Z,21.35
2023-02-15T00:34:31.200Z,22.55
2023-02-15T00:36:58.367Z,24.13
2023-02-15T00:39:25.332Z,22.50
2023-02-15T00:41:52.083Z,21.80
2023-02-15T00:44:18.888Z,21.45
2023-02-15T00:46:45.682Z,21.88
2023-02-15T00:49:12.689Z,22.58
2023-02-15T00:51:40.460Z,22.45
2023-02-15T00:54:07.773Z,24.17
2023-02-15T00:56:34.560Z,22.60
2023-02-15T00:59:01.838Z,21.60
2023-02-15T01:01:28.582Z,21.35
2023-02-15T01:03:55.397Z,21.02
2023-02-15T01:06:22.293Z,21.17
2023-02-15T01:08:49.511Z,21.85
2023-02-15T01:11:23.265Z,22.73
2023-02-15T01:16:19.258Z,20.13
2023-02-15T01:18:46.024Z,19.95
2023-02-15T01:21:20.025Z,20.73
2023-02-15T01:26:14.547Z,19.40
2023-02-15T01:28:41.947Z,21.20
2023-02-15T01:31:17.091Z,23.52
2023-02-15T01:33:44.086Z,22.88
2023-02-15T01:36:11.656Z,22.40
2023-02-15T01:38:38.532Z,21.90
2023-02-15T01:41:23.672Z,23.27
2023-02-15T01:43:57.909Z,21.33
2023-02-15T01:46:37.761Z,21.50
2023-02-15T01:49:17.348Z,21.42
2023-02-15T01:51:48.206Z,22.73
2023-02-15T01:54:37.546Z,25.20
2023-02-15T01:57:11.693Z,24.08
2023-02-15T01:59:43.114Z,24.50
2023-02-15T02:02:14.408Z,21.60
2023-02-15T02:04:53.893Z,23.60
2023-02-15T02:07:24.880Z,21.20
2023-02-15T02:09:51.762Z,24.58
2023-02-15T02:12:22.120Z,23.77
2023-02-15T02:14:51.670Z,26.90
2023-02-15T02:17:43.651Z,25.60
2023-02-15T02:20:53.982Z,25.08
2023-02-15T02:23:50.115Z,25.00
2023-02-15T02:27:24.959Z,26.83
2023-02-15T02:30:33.911Z,26.77
2023-02-15T02:33:56.514Z,25.90
2023-02-15T02:36:48.603Z,23.40
2023-02-15T02:39:49.067Z,25.67
2023-02-15T02:42:36.694Z,27.20
2023-02-15T02:45:32.960Z,28.45
2023-02-15T02:48:20.631Z,29.58
2023-02-15T02:50:47.345Z,33.30
2023-02-15T02:53:14.041Z,30.55
2023-02-15T02:55:53.109Z,33.75
2023-02-15T02:58:30.248Z,36.28
2023-02-15T03:01:07.330Z,36.38
2023-02-15T03:03:43.579Z,35.65
2023-02-15T03:06:24.694Z,36.90
2023-02-15T03:09:04.085Z,36.45
2023-02-15T03:11:31.591Z,34.53
2023-02-15T03:13:59.176Z,34.50
2023-02-15T03:16:27.097Z,35.55
2023-02-15T03:19:11.154Z,36.92
2023-02-15T03:21:58.545Z,35.63
2023-02-15T03:24:35.571Z,36.78
2023-02-15T03:27:11.202Z,35.00
2023-02-15T03:29:39.664Z,36.33
2023-02-15T03:32:11.272Z,36.22
2023-02-15T03:34:38.340Z,35.78
2023-02-15T03:37:31.582Z,38.80
2023-02-15T03:40:25.588Z,35.58
2023-02-15T03:43:13.825Z,39.63
2023-02-15T03:45:55.446Z,39.30
2023-02-15T03:48:40.809Z,37.67
2023-02-15T03:51:34.605Z,37.72
2023-02-15T03:54:38.101Z,36.42
2023-02-15T03:57:26.524Z,37.17
2023-02-15T04:00:11.943Z,38.65
2023-02-15T04:03:15.683Z,38.72
2023-02-15T04:05:45.855Z,35.67
2023-02-15T04:08:13.832Z,34.88
2023-02-15T04:10:57.199Z,35.22
2023-02-15T04:13:31.686Z,38.73
2023-02-15T04:16:05.984Z,36.10
2023-02-15T04:18:58.835Z,36.15
2023-02-15T04:21:47.393Z,40.15
2023-02-15T04:24:33.230Z,37.40
2023-02-15T04:27:00.820Z,38.70
2023-02-15T04:29:28.664Z,36.00
2023-02-15T04:32:00.450Z,37.20
2023-02-15T04:34:27.708Z,38.90
2023-02-15T04:36:54.427Z,35.30
2023-02-15T04:39:21.160Z,37.10
2023-02-15T04:41:48.717Z,34.70
2023-02-15T04:44:15.924Z,35.30
2023-02-15T04:46:42.668Z,33.58
2023-02-15T04:49:10.315Z,36.63
2023-02-15T04:51:37.464Z,34.80
2023-02-15T04:54:04.397Z,32.50
2023-02-15T04:56:32.130Z,32.53
2023-02-15T04:58:58.844Z,32.45
2023-02-15T05:01:25.640Z,35.30
2023-02-15T05:03:52.414Z,34.20
2023-02-15T05:06:19.216Z,33.60
2023-02-15T05:08:46.528Z,35.08
2023-02-15T05:11:13.296Z,32.78
2023-02-15T05:13:40.004Z,32.40
2023-02-15T05:16:06.771Z,33.95
2023-02-15T05:18:33.625Z,34.58
2023-02-15T05:21:00.354Z,35.25
2023-02-15T05:23:27.439Z,33.35
2023-02-15T05:26:12.672Z,34.85
2023-02-15T05:28:40.062Z,36.35
2023-02-15T05:31:16.025Z,36.30
2023-02-15T05:33:43.804Z,34.53
2023-02-15T05:36:11.782Z,35.90
2023-02-15T05:38:39.553Z,37.03
2023-02-15T05:41:08.576Z,33.15
2023-02-15T05:43:36.050Z,33.40
2023-02-15T05:46:04.895Z,33.63
2023-02-15T05:48:32.811Z,32.83
2023-02-15T05:51:16.783Z,33.75
2023-02-15T05:53:43.811Z,37.47
2023-02-15T05:56:12.918Z,34.70
2023-02-15T05:58:42.484Z,34.55
2023-02-15T06:01:16.298Z,35.45
2023-02-15T06:03:43.235Z,38.00
2023-02-15T06:06:10.776Z,35.33
2023-02-15T06:08:39.016Z,36.72
2023-02-15T06:11:06.775Z,36.25
2023-02-15T06:13:38.034Z,39.95
2023-02-15T06:16:06.898Z,38.35
2023-02-15T06:18:33.956Z,37.03
2023-02-15T06:21:00.860Z,37.90
2023-02-15T06:23:27.636Z,38.28
2023-02-15T06:25:54.364Z,39.20
2023-02-15T06:28:21.116Z,39.42
2023-02-15T06:30:48.014Z,38.38
2023-02-15T06:33:14.794Z,37.85
2023-02-15T06:35:41.507Z,37.58
2023-02-15T06:38:08.233Z,40.33
2023-02-15T06:40:35.014Z,38.38
2023-02-15T06:43:01.804Z,38.17
2023-02-15T06:45:28.553Z,39.03
2023-02-15T06:47:55.262Z,38.40
2023-02-15T06:50:21.970Z,41.92
2023-02-15T06:52:48.779Z,37.30
2023-02-15T06:55:15.658Z,40.20
2023-02-15T06:57:42.587Z,36.53
2023-02-15T07:00:10.057Z,40.90
2023-02-15T07:02:37.223Z,40.08
2023-02-15T07:05:06.096Z,43.72
2023-02-15T07:07:33.027Z,41.75
2023-02-15T07:09:59.789Z,37.00
2023-02-15T07:12:45.495Z,39.47
2023-02-15T07:15:16.621Z,38.38
2023-02-15T07:17:44.548Z,37.10
2023-02-15T07:20:23.840Z,40.47
2023-02-15T07:22:51.476Z,42.42
2023-02-15T07:25:19.251Z,42.97
2023-02-15T07:27:46.675Z,42.80
2023-02-15T07:30:17.424Z,38.75
2023-02-15T07:33:05.556Z,36.78
2023-02-15T07:35:33.597Z,36.58
2023-02-15T07:38:01.904Z,34.63
2023-02-15T07:40:28.678Z,43.22
2023-02-15T07:43:00.072Z,39.88
2023-02-15T07:45:27.861Z,37.20
2023-02-15T07:47:54.606Z,39.33
2023-02-15T07:50:21.322Z,40.35
2023-02-15T07:52:48.078Z,38.90
2023-02-15T07:55:14.946Z,33.03
2023-02-15T07:57:46.571Z,38.80
2023-02-15T08:00:19.227Z,34.58
2023-02-15T08:03:10.625Z,36.67
2023-02-15T08:05:37.608Z,34.55
2023-02-15T08:08:04.940Z,35.08
2023-02-15T08:11:03.980Z,36.25
2023-02-15T08:13:30.691Z,35.78
2023-02-15T08:15:57.421Z,36.20
2023-02-15T08:18:24.230Z,37.00
2023-02-15T08:20:51.463Z,40.65
2023-02-15T08:23:18.254Z,36.50
2023-02-15T08:25:45.103Z,39.47
2023-02-15T08:28:12.127Z,41.45
2023-02-15T08:30:38.913Z,38.90
2023-02-15T08:33:05.627Z,39.25
2023-02-15T08:35:32.506Z,36.95
2023-02-15T08:37:59.267Z,35.97
2023-02-15T08:40:25.991Z,36.55
2023-02-15T08:42:52.721Z,38.25
2023-02-15T08:45:19.472Z,40.75
2023-02-15T08:47:46.416Z,41.95
2023-02-15T08:50:13.147Z,40.20
2023-02-15T08:52:39.883Z,40.35
2023-02-15T08:55:06.885Z,37.40
2023-02-15T08:57:33.590Z,38.90
2023-02-15T09:00:00.368Z,41.95
2023-02-15T09:02:27.148Z,38.00
2023-02-15T09:04:54.099Z,36.42
2023-02-15T09:07:21.217Z,35.80
2023-02-15T09:09:48.120Z,37.42
2023-02-15T09:12:14.842Z,34.70
2023-02-15T09:14:41.593Z,35.10
2023-02-15T09:17:08.331Z,31.45
2023-02-15T09:19:35.172Z,32.53
2023-02-15T09:22:01.924Z,35.50
2023-02-15T09:24:32.421Z,33.00
2023-02-15T09:26:59.126Z,31.83
2023-02-15T09:29:25.842Z,33.08
2023-02-15T09:31:54.451Z,34.92
2023-02-15T09:34:23.447Z,32.40
2023-02-15T09:36:52.084Z,31.08
2023-02-15T09:39:20.606Z,35.78
2023-02-15T09:41:56.084Z,31.17
2023-02-15T09:44:53.742Z,34.80
2023-02-15T09:47:53.535Z,32.28
2023-02-15T09:50:30.538Z,29.92
2023-02-15T09:53:39.589Z,31.65
2023-02-15T09:56:39.761Z,30.25
2023-02-15T09:59:38.436Z,28.20
2023-02-15T10:02:25.519Z,29.30
2023-02-15T10:05:08.402Z,27.17
2023-02-15T10:08:41.686Z,27.42
2023-02-15T10:11:46.273Z,28.83
2023-02-15T10:14:39.071Z,27.02
2023-02-15T10:17:27.033Z,30.40
2023-02-15T10:20:30.176Z,26.27
2023-02-15T10:23:40.743Z,28.77
2023-02-15T10:26:42.703Z,27.65
2023-02-15T10:29:43.060Z,26.67
2023-02-15T10:32:25.109Z,26.02
2023-02-15T10:35:12.646Z,25.88
2023-02-15T10:38:09.135Z,29.40
2023-02-15T10:41:05.412Z,24.70
2023-02-15T10:43:57.143Z,27.25
2023-02-15T10:47:01.359Z,24.85
2023-02-15T10:49:51.753Z,27.40
2023-02-15T10:52:35.991Z,30.92
2023-02-15T10:55:43.197Z,28.75
2023-02-15T10:58:21.699Z,27.27
2023-02-15T11:01:01.595Z,28.90
2023-02-15T11:04:09.023Z,30.90
2023-02-15T11:06:43.615Z,27.90
2023-02-15T11:09:18.996Z,34.30
2023-02-15T11:11:53.815Z,26.88
2023-02-15T11:14:47.472Z,26.00
2023-02-15T11:17:23.185Z,30.90
2023-02-15T11:20:09.757Z,28.50
2023-02-15T11:22:37.171Z,29.73
2023-02-15T11:25:20.232Z,29.02
2023-02-15T11:27:50.383Z,26.88
2023-02-15T11:30:41.793Z,27.83
2023-02-15T11:33:23.324Z,27.85
2023-02-15T11:36:12.950Z,27.73
2023-02-15T11:38:44.673Z,33.88
2023-02-15T11:41:15.844Z,31.55
2023-02-15T11:44:07.967Z,30.35
2023-02-15T11:46:35.367Z,25.13
2023-02-15T11:49:03.840Z,27.10
2023-02-15T11:51:30.667Z,26.40
2023-02-15T11:53:57.658Z,24.25
2023-02-15T11:56:27.011Z,23.40
2023-02-15T11:59:03.992Z,26.58
2023-02-15T12:01:43.294Z,21.55
2023-02-15T12:04:31.269Z,23.80
2023-02-15T12:07:23.476Z,21.92
2023-02-15T12:10:05.067Z,22.27
2023-02-15T12:12:35.902Z,26.80
2023-02-15T12:15:09.838Z,23.35
2023-02-15T12:20:16.433Z,19.52
2023-02-15T12:23:05.165Z,20.98
2023-02-15T12:25:52.847Z,20.23
2023-02-15T12:28:40.400Z,19.05
2023-02-15T12:31:28.022Z,22.80
2023-02-15T12:33:59.069Z,21.20
2023-02-15T12:36:51.703Z,21.45
2023-02-15T12:39:36.926Z,20.88
2023-02-15T12:42:16.949Z,21.30
2023-02-15T12:45:20.722Z,19.17
2023-02-15T12:48:07.875Z,21.90
2023-02-15T12:50:35.295Z,19.48
2023-02-15T12:53:26.381Z,22.15
2023-02-15T12:55:58.113Z,23.50
2023-02-15T12:58:31.924Z,20.85
2023-02-15T13:01:13.635Z,19.92
2023-02-15T13:04:04.259Z,20.73
2023-02-15T13:06:37.491Z,20.40
2023-02-15T13:09:40.563Z,18.25
2023-02-15T13:12:27.372Z,18.60
2023-02-15T13:14:56.254Z,19.33
2023-02-15T13:17:30.547Z,19.83
2023-02-15T13:20:02.823Z,18.80
2023-02-15T13:22:45.640Z,24.27
2023-02-15T13:25:30.659Z,18.25
2023-02-15T13:28:04.316Z,19.60
2023-02-15T13:30:39.706Z,19.55
2023-02-15T13:33:18.834Z,17.40
2023-02-15T13:36:03.406Z,17.65
2023-02-15T13:39:11.724Z,17.70
2023-02-15T13:42:03.266Z,16.10
2023-02-15T13:45:26.432Z,17.38
2023-02-15T13:48:34.145Z,16.08
2023-02-15T13:51:27.348Z,15.23
2023-02-15T13:54:37.208Z,17.58
2023-02-15T13:57:41.665Z,16.55
2023-02-15T14:00:59.180Z,16.90
2023-02-15T14:04:05.587Z,17.13
2023-02-15T14:06:59.208Z,17.42
2023-02-15T14:09:32.211Z,15.73
2023-02-15T14:12:04.737Z,19.05
2023-02-15T14:15:13.055Z,18.67
2023-02-15T14:17:59.291Z,17.80
2023-02-15T14:20:42.183Z,16.75
2023-02-15T14:23:50.094Z,19.00
2023-02-15T14:26:38.285Z,17.02
2023-02-15T14:29:37.667Z,17.15
2023-02-15T14:32:47.226Z,18.40
2023-02-15T14:35:25.870Z,17.30
2023-02-15T14:38:10.761Z,16.98
2023-02-15T14:41:13.477Z,17.35
2023-02-15T14:43:59.710Z,19.77
2023-02-15T14:46:51.252Z,17.35
2023-02-15T14:49:32.302Z,20.38
2023-02-15T14:52:08.057Z,15.38
2023-02-15T14:54:34.734Z,17.90
2023-02-15T14:57:01.391Z,16.77
2023-02-15T14:59:59.110Z,17.63
2023-02-15T15:02:27.528Z,19.65
2023-02-15T15:05:11.555Z,16.52
2023-02-15T15:07:49.683Z,15.40
2023-02-15T15:10:17.757Z,17.38
2023-02-15T15:12:53.457Z,16.45
2023-02-15T15:15:31.880Z,19.45
2023-02-15T15:18:10.484Z,17.08
2023-02-15T15:20:52.665Z,17.83
2023-02-15T15:23:19.343Z,18.98
2023-02-15T15:25:57.739Z,17.77
2023-02-15T15:28:36.299Z,17.17
2023-02-15T15:31:42.951Z,15.93
2023-02-15T15:34:52.209Z,16.08
2023-02-15T15:37:48.342Z,15.45
2023-02-15T15:40:41.628Z,13.50
2023-02-15T15:44:02.411Z,14.13
2023-02-15T15:47:10.367Z,16.88
2023-02-15T15:49:40.203Z,15.38
2023-02-15T15:52:20.015Z,17.17
2023-02-15T15:54:53.844Z,17.00
2023-02-15T15:57:40.387Z,15.85
2023-02-15T16:00:36.094Z,17.98
2023-02-15T16:03:03.454Z,17.23
2023-02-15T16:05:38.465Z,19.30
2023-02-15T16:08:06.361Z,19.33
2023-02-15T16:10:35.091Z,20.05
2023-02-15T16:13:03.135Z,21.02
2023-02-15T16:15:46.049Z,20.88
2023-02-15T16:18:19.097Z,21.08
2023-02-15T16:20:57.862Z,21.30
2023-02-15T16:23:56.143Z,19.65
2023-02-15T16:27:04.344Z,17.80
2023-02-15T16:29:34.207Z,20.95
2023-02-15T16:32:28.968Z,20.13
2023-02-15T16:34:59.730Z,18.48
2023-02-15T16:37:34.535Z,18.90
2023-02-15T16:40:01.595Z,19.45
2023-02-15T16:42:28.579Z,15.40
2023-02-15T16:45:17.078Z,18.35
2023-02-15T16:47:49.940Z,15.02
2023-02-15T16:50:38.555Z,15.90
2023-02-15T16:53:14.718Z,15.02
2023-02-15T16:55:43.873Z,15.63
2023-02-15T16:58:17.497Z,15.73
2023-02-15T17:00:45.107Z,13.27
2023-02-15T17:03:14.819Z,18.90
2023-02-15T17:05:50.838Z,15.10
2023-02-15T17:08:20.719Z,15.50
2023-02-15T17:11:10.810Z,14.07
2023-02-15T17:13:37.708Z,14.73
2023-02-15T17:16:04.730Z,16.17
2023-02-15T17:18:39.132Z,13.80
2023-02-15T17:21:28.610Z,13.65
2023-02-15T17:24:01.449Z,17.13
2023-02-15T17:26:34.109Z,15.02
2023-02-15T17:29:34.994Z,17.58
2023-02-15T17:32:03.015Z,16.92
2023-02-15T17:35:00.675Z,20.30
2023-02-15T17:37:39.711Z,19.58
2023-02-15T17:40:25.735Z,24.95
2023-02-15T17:42:53.513Z,25.05
2023-02-15T17:45:22.425Z,23.73
2023-02-15T17:47:50.357Z,24.00
2023-02-15T17:50:26.136Z,23.38
2023-02-15T17:52:56.272Z,25.35
2023-02-15T17:55:40.039Z,23.83
2023-02-15T17:58:22.771Z,21.75
2023-02-15T18:01:15.972Z,23.75
2023-02-15T18:04:08.388Z,24.45
2023-02-15T18:06:57.670Z,24.15
2023-02-15T18:09:44.716Z,22.80
2023-02-15T18:12:26.612Z,24.55
2023-02-15T18:14:55.154Z,25.15
2023-02-15T18:17:46.970Z,24.80
2023-02-15T18:20:28.154Z,25.65
2023-02-15T18:22:55.272Z,28.13
2023-02-15T18:25:25.459Z,24.17
2023-02-15T18:27:54.844Z,23.50
2023-02-15T18:30:26.479Z,22.60
2023-02-15T18:32:57.125Z,22.80
2023-02-15T18:35:28.416Z,23.05
2023-02-15T18:37:55.592Z,23.00
2023-02-15T18:40:27.471Z,24.05
2023-02-15T18:42:56.902Z,22.58
2023-02-15T18:45:28.737Z,26.30
2023-02-15T18:47:55.568Z,22.75
2023-02-15T18:50:29.006Z,20.02
2023-02-15T18:52:55.781Z,25.77
2023-02-15T18:55:27.939Z,22.00
2023-02-15T18:57:57.332Z,21.05
2023-02-15T19:00:34.227Z,21.88
2023-02-15T19:03:02.651Z,19.88
2023-02-15T19:05:31.970Z,20.85
2023-02-15T19:08:01.602Z,24.73
2023-02-15T19:10:31.796Z,21.73
2023-02-15T19:12:59.300Z,21.50
2023-02-15T19:15:30.438Z,21.38
2023-02-15T19:17:57.388Z,23.75
2023-02-15T19:20:36.220Z,23.30
2023-02-15T19:23:03.774Z,22.88
2023-02-15T19:25:37.586Z,20.42
2023-02-15T19:28:16.170Z,23.08
2023-02-15T19:30:43.388Z,25.00
2023-02-15T19:33:20.106Z,24.13
2023-02-15T19:35:52.406Z,27.38
2023-02-15T19:38:26.073Z,26.27
2023-02-15T19:40:53.110Z,24.70
2023-02-15T19:43:26.875Z,26.38
2023-02-15T19:45:53.888Z,22.45
2023-02-15T19:48:20.672Z,24.73
2023-02-15T19:50:48.983Z,20.85
2023-02-15T19:53:25.574Z,22.45
2023-02-15T19:55:53.177Z,26.40
2023-02-15T19:58:20.474Z,22.33
2023-02-15T20:00:49.924Z,24.85
2023-02-15T20:03:17.317Z,23.80
2023-02-15T20:05:45.326Z,24.48
2023-02-15T20:08:18.466Z,24.05
2023-02-15T20:10:45.964Z,23.55
2023-02-15T20:13:18.548Z,24.27
2023-02-15T20:15:46.686Z,24.60
2023-02-15T20:18:13.850Z,23.95
2023-02-15T20:20:49.404Z,25.65
2023-02-15T20:23:37.214Z,27.73
2023-02-15T20:26:18.337Z,25.95
2023-02-15T20:28:46.736Z,24.35
2023-02-15T20:31:20.309Z,28.52
2023-02-15T20:33:50.740Z,26.25
2023-02-15T20:36:20.881Z,23.20
2023-02-15T20:38:48.219Z,24.40
2023-02-15T20:41:36.124Z,26.20
2023-02-15T20:44:27.640Z,23.60
2023-02-15T20:46:57.137Z,22.33
2023-02-15T20:49:26.195Z,23.13
2023-02-15T20:51:57.244Z,22.30
2023-02-15T20:54:29.200Z,25.55
2023-02-15T20:56:55.921Z,24.85
2023-02-15T20:59:32.356Z,23.38
2023-02-15T21:02:02.784Z,23.88
2023-02-15T21:04:33.171Z,22.52
2023-02-15T21:07:01.051Z,22.38
2023-02-15T21:09:28.229Z,21.58
2023-02-15T21:11:58.254Z,21.05
2023-02-15T21:14:28.305Z,21.95
2023-02-15T21:16:55.242Z,19.25
2023-02-15T21:19:24.680Z,20.20
2023-02-15T21:21:53.387Z,22.67
2023-02-15T21:24:28.914Z,20.58
2023-02-15T21:27:00.045Z,20.75
2023-02-15T21:29:29.192Z,18.70
2023-02-15T21:32:00.353Z,20.08
2023-02-15T21:34:27.258Z,20.77
2023-02-15T21:36:54.148Z,19.75
2023-02-15T21:39:27.779Z,20.73
2023-02-15T21:42:14.954Z,20.83
2023-02-15T21:45:00.987Z,20.67
2023-02-15T21:47:50.117Z,21.85
2023-02-15T21:50:42.125Z,19.88
2023-02-15T21:53:19.866Z,18.60
2023-02-15T21:55:46.605Z,24.80
2023-02-15T21:58:22.919Z,19.48
2023-02-15T22:00:50.258Z,19.50
2023-02-15T22:03:17.206Z,22.15
2023-02-15T22:05:44.026Z,20.42
2023-02-15T22:08:14.156Z,20.20
2023-02-15T22:10:42.582Z,19.67
2023-02-15T22:13:16.066Z,21.45
2023-02-15T22:15:46.564Z,18.75
2023-02-15T22:18:24.194Z,18.58
2023-02-15T22:20:52.408Z,19.08
2023-02-15T22:23:19.754Z,20.52
2023-02-15T22:25:57.777Z,19.45
2023-02-15T22:28:35.890Z,17.60
2023-02-15T22:31:06.712Z,18.23
2023-02-15T22:33:34.741Z,17.05
2023-02-15T22:36:02.283Z,18.10
2023-02-15T22:38:29.053Z,16.55
2023-02-15T22:41:03.644Z,16.65
2023-02-15T22:43:40.152Z,16.25
2023-02-15T22:46:22.244Z,18.08
2023-02-15T22:48:49.815Z,16.70
2023-02-15T22:51:21.164Z,19.13
2023-02-15T22:53:51.752Z,17.58
2023-02-15T22:56:36.636Z,15.02
2023-02-15T22:59:19.220Z,17.20
2023-02-15T23:01:46.570Z,15.40
2023-02-15T23:04:20.210Z,16.02
2023-02-15T23:06:47.873Z,14.38
2023-02-15T23:09:16.362Z,15.25
2023-02-15T23:11:44.216Z,14.88
2023-02-15T23:14:19.868Z,15.07
2023-02-15T23:16:46.621Z,15.98
2023-02-15T23:19:15.577Z,15.50
2023-02-15T23:21:42.903Z,15.10
2023-02-15T23:24:26.867Z,15.68
2023-02-15T23:26:54.759Z,15.20
2023-02-15T23:29:23.829Z,16.92
2023-02-15T23:31:53.466Z,16.42
2023-02-15T23:34:27.644Z,16.77
2023-02-15T23:39:47.035Z,14.35
2023-02-15T23:42:21.327Z,15.60
2023-02-15T23:44:48.678Z,16.33
2023-02-15T23:47:44.089Z,17.45
2023-02-15T23:50:27.071Z,16.23
2023-02-15T23:52:55.388Z,14.40
2023-02-15T23:55:25.459Z,14.02
2023-02-15T23:57:53.473Z,16.20
